sensor_id;sensor_type;location;lat;lon;timestamp;pressure;altitude;pressure_sealevel;temperature;humidity
56807;BME280;42687;42.524;12.052;2022-09-09T00:01:51;96661.56;;;15.77;100.00
56807;BME280;42687;42.524;12.052;2022-09-09T00:09:53;96670.75;;;15.84;100.00
56807;BME280;42687;42.524;12.052;2022-09-09T00:14:59;96673.75;;;15.91;100.00
56807;BME280;42687;42.524;12.052;2022-09-09T00:17:47;96650.56;;;15.93;100.00
56807;BME280;42687;42.524;12.052;2022-09-09T00:20:16;96639.28;;;15.91;100.00
56807;BME280;42687;42.524;12.052;2022-09-09T00:27:56;96645.41;;;15.91;100.00
56807;BME280;42687;42.524;12.052;2022-09-09T00:30:23;96632.41;;;15.88;100.00
56807;BME280;42687;42.524;12.052;2022-09-09T00:32:53;96625.28;;;15.89;100.00
56807;BME280;42687;42.524;12.052;2022-09-09T00:35:33;96616.63;;;15.87;100.00
56807;BME280;42687;42.524;12.052;2022-09-09T00:38:10;96615.66;;;15.88;100.00
56807;BME280;42687;42.524;12.052;2022-09-09T00:40:45;96619.28;;;15.87;100.00
56807;BME280;42687;42.524;12.052;2022-09-09T00:43:23;96621.94;;;15.87;100.00
56807;BME280;42687;42.524;12.052;2022-09-09T00:48:16;96604.53;;;15.94;100.00
56807;BME280;42687;42.524;12.052;2022-09-09T00:50:53;96588.13;;;16.00;100.00
56807;BME280;42687;42.524;12.052;2022-09-09T00:58:42;96563.44;;;15.99;100.00
56807;BME280;42687;42.524;12.052;2022-09-09T01:01:11;96561.00;;;15.96;100.00
56807;BME280;42687;42.524;12.052;2022-09-09T01:03:40;96556.81;;;15.94;100.00
56807;BME280;42687;42.524;12.052;2022-09-09T01:11:01;96531.84;;;15.96;100.00
56807;BME280;42687;42.524;12.052;2022-09-09T01:13:31;96528.22;;;15.97;100.00
56807;BME280;42687;42.524;12.052;2022-09-09T01:15:59;96524.00;;;15.95;100.00
56807;BME280;42687;42.524;12.052;2022-09-09T01:18:36;96515.22;;;15.94;100.00
56807;BME280;42687;42.524;12.052;2022-09-09T01:21:12;96515.34;;;15.93;100.00
56807;BME280;42687;42.524;12.052;2022-09-09T01:23:45;96498.66;;;15.81;100.00
56807;BME280;42687;42.524;12.052;2022-09-09T01:26:21;96523.50;;;16.01;100.00
56807;BME280;42687;42.524;12.052;2022-09-09T01:28:49;96520.31;;;16.07;100.00
56807;BME280;42687;42.524;12.052;2022-09-09T01:34:19;96520.00;;;16.22;100.00
56807;BME280;42687;42.524;12.052;2022-09-09T01:39:13;96505.41;;;16.27;100.00
56807;BME280;42687;42.524;12.052;2022-09-09T01:41:39;96516.56;;;16.31;100.00
56807;BME280;42687;42.524;12.052;2022-09-09T01:44:04;96516.44;;;16.32;100.00
56807;BME280;42687;42.524;12.052;2022-09-09T01:46:31;96509.19;;;16.34;100.00
56807;BME280;42687;42.524;12.052;2022-09-09T01:48:57;96515.78;;;16.40;100.00
56807;BME280;42687;42.524;12.052;2022-09-09T01:51:24;96517.63;;;16.49;100.00
56807;BME280;42687;42.524;12.052;2022-09-09T01:53:49;96521.47;;;16.57;100.00
56807;BME280;42687;42.524;12.052;2022-09-09T02:01:24;96525.19;;;16.75;100.00
56807;BME280;42687;42.524;12.052;2022-09-09T02:03:53;96537.22;;;16.79;100.00
56807;BME280;42687;42.524;12.052;2022-09-09T02:06:25;96525.19;;;16.85;100.00
56807;BME280;42687;42.524;12.052;2022-09-09T02:08:52;96531.00;;;16.90;100.00
56807;BME280;42687;42.524;12.052;2022-09-09T02:11:20;96527.38;;;16.91;100.00
56807;BME280;42687;42.524;12.052;2022-09-09T02:13:47;96532.00;;;16.99;100.00
56807;BME280;42687;42.524;12.052;2022-09-09T02:21:11;96549.50;;;17.11;100.00
56807;BME280;42687;42.524;12.052;2022-09-09T02:23:37;96511.94;;;16.85;100.00
56807;BME280;42687;42.524;12.052;2022-09-09T02:26:04;96551.56;;;16.98;100.00
56807;BME280;42687;42.524;12.052;2022-09-09T02:28:31;96548.63;;;16.91;100.00
56807;BME280;42687;42.524;12.052;2022-09-09T02:30:58;96543.22;;;16.81;100.00
56807;BME280;42687;42.524;12.052;2022-09-09T02:33:24;96555.50;;;16.73;100.00
56807;BME280;42687;42.524;12.052;2022-09-09T02:35:51;96556.16;;;16.65;100.00
56807;BME280;42687;42.524;12.052;2022-09-09T02:38:17;96546.19;;;16.57;100.00
56807;BME280;42687;42.524;12.052;2022-09-09T02:40:46;96542.84;;;16.55;100.00
56807;BME280;42687;42.524;12.052;2022-09-09T02:43:13;96542.13;;;16.53;100.00
56807;BME280;42687;42.524;12.052;2022-09-09T02:45:42;96538.72;;;16.51;100.00
56807;BME280;42687;42.524;12.052;2022-09-09T02:48:20;96531.63;;;16.51;100.00
56807;BME280;42687;42.524;12.052;2022-09-09T02:53:38;96531.88;;;16.48;100.00
56807;BME280;42687;42.524;12.052;2022-09-09T02:56:08;96534.53;;;16.48;100.00
56807;BME280;42687;42.524;12.052;2022-09-09T03:16:53;96517.47;;;16.41;100.00
56807;BME280;42687;42.524;12.052;2022-09-09T03:19:19;96517.59;;;16.40;100.00
56807;BME280;42687;42.524;12.052;2022-09-09T03:21:46;96521.34;;;16.37;100.00
56807;BME280;42687;42.524;12.052;2022-09-09T03:24:11;96524.97;;;16.36;100.00
56807;BME280;42687;42.524;12.052;2022-09-09T03:26:37;96524.38;;;16.32;100.00
56807;BME280;42687;42.524;12.052;2022-09-09T03:29:03;96509.47;;;16.31;100.00
56807;BME280;42687;42.524;12.052;2022-09-09T03:31:32;96513.22;;;16.29;100.00
56807;BME280;42687;42.524;12.052;2022-09-09T03:33:57;96507.19;;;16.27;100.00
56807;BME280;42687;42.524;12.052;2022-09-09T03:36:24;96509.00;;;16.26;100.00
56807;BME280;42687;42.524;12.052;2022-09-09T03:38:52;96516.25;;;16.24;100.00
56807;BME280;42687;42.524;12.052;2022-09-09T03:41:19;96511.06;;;16.23;100.00
56807;BME280;42687;42.524;12.052;2022-09-09T03:43:49;96519.16;;;16.21;100.00
56807;BME280;42687;42.524;12.052;2022-09-09T03:46:15;96517.47;;;16.20;100.00
56807;BME280;42687;42.524;12.052;2022-09-09T03:48:40;96525.31;;;16.22;100.00
56807;BME280;42687;42.524;12.052;2022-09-09T03:51:06;96524.19;;;16.24;100.00
56807;BME280;42687;42.524;12.052;2022-09-09T03:53:31;96517.09;;;16.25;100.00
56807;BME280;42687;42.524;12.052;2022-09-09T03:55:58;96525.75;;;16.27;100.00
56807;BME280;42687;42.524;12.052;2022-09-09T03:58:25;96521.41;;;16.26;100.00
56807;BME280;42687;42.524;12.052;2022-09-09T04:00:55;96519.75;;;16.25;100.00
56807;BME280;42687;42.524;12.052;2022-09-09T04:03:21;96528.69;;;16.24;100.00
56807;BME280;42687;42.524;12.052;2022-09-09T04:05:50;96530.47;;;16.23;100.00
56807;BME280;42687;42.524;12.052;2022-09-09T04:08:16;96526.28;;;16.21;100.00
56807;BME280;42687;42.524;12.052;2022-09-09T04:10:44;96521.97;;;16.20;100.00
56807;BME280;42687;42.524;12.052;2022-09-09T04:13:12;96523.44;;;16.12;100.00
56807;BME280;42687;42.524;12.052;2022-09-09T04:15:39;96534.03;;;16.12;100.00
56807;BME280;42687;42.524;12.052;2022-09-09T04:18:04;96498.72;;;15.91;100.00
56807;BME280;42687;42.524;12.052;2022-09-09T04:20:30;96532.81;;;16.16;100.00
56807;BME280;42687;42.524;12.052;2022-09-09T04:22:55;96535.34;;;16.18;100.00
56807;BME280;42687;42.524;12.052;2022-09-09T04:25:21;96524.47;;;16.21;100.00
56807;BME280;42687;42.524;12.052;2022-09-09T04:27:46;96524.34;;;16.23;100.00
56807;BME280;42687;42.524;12.052;2022-09-09T04:30:12;96527.59;;;16.26;100.00
56807;BME280;42687;42.524;12.052;2022-09-09T04:32:37;96527.19;;;16.31;100.00
56807;BME280;42687;42.524;12.052;2022-09-09T04:35:03;96526.06;;;16.33;100.00
56807;BME280;42687;42.524;12.052;2022-09-09T04:37:29;96528.06;;;16.41;100.00
56807;BME280;42687;42.524;12.052;2022-09-09T04:39:54;96529.13;;;16.50;100.00
56807;BME280;42687;42.524;12.052;2022-09-09T04:42:19;96533.88;;;16.56;100.00
56807;BME280;42687;42.524;12.052;2022-09-09T04:44:45;96533.50;;;16.61;100.00
56807;BME280;42687;42.524;12.052;2022-09-09T04:47:10;96525.84;;;16.67;100.00
56807;BME280;42687;42.524;12.052;2022-09-09T04:49:36;96526.28;;;16.73;100.00
56807;BME280;42687;42.524;12.052;2022-09-09T04:52:02;96526.84;;;16.76;100.00
56807;BME280;42687;42.524;12.052;2022-09-09T04:54:27;96530.06;;;16.80;100.00
56807;BME280;42687;42.524;12.052;2022-09-09T04:56:53;96534.00;;;16.85;100.00
56807;BME280;42687;42.524;12.052;2022-09-09T04:59:20;96540.78;;;16.90;100.00
56807;BME280;42687;42.524;12.052;2022-09-09T05:01:47;96533.22;;;16.95;100.00
56807;BME280;42687;42.524;12.052;2022-09-09T05:04:12;96531.88;;;17.00;100.00
56807;BME280;42687;42.524;12.052;2022-09-09T05:06:39;96537.03;;;17.02;100.00
56807;BME280;42687;42.524;12.052;2022-09-09T05:09:05;96535.63;;;16.98;100.00
56807;BME280;42687;42.524;12.052;2022-09-09T05:11:31;96538.69;;;16.93;100.00
56807;BME280;42687;42.524;12.052;2022-09-09T05:14:00;96513.44;;;16.78;100.00
56807;BME280;42687;42.524;12.052;2022-09-09T05:16:26;96551.28;;;17.01;100.00
56807;BME280;42687;42.524;12.052;2022-09-09T05:18:51;96548.94;;;17.08;100.00
56807;BME280;42687;42.524;12.052;2022-09-09T05:21:18;96549.09;;;17.16;100.00
56807;BME280;42687;42.524;12.052;2022-09-09T05:23:44;96545.06;;;17.22;100.00
56807;BME280;42687;42.524;12.052;2022-09-09T05:26:14;96553.72;;;17.24;100.00
56807;BME280;42687;42.524;12.052;2022-09-09T05:28:40;96551.22;;;17.22;100.00
56807;BME280;42687;42.524;12.052;2022-09-09T05:31:07;96549.38;;;17.23;100.00
56807;BME280;42687;42.524;12.052;2022-09-09T05:33:33;96558.22;;;17.23;100.00
56807;BME280;42687;42.524;12.052;2022-09-09T05:36:03;96560.88;;;17.23;100.00
56807;BME280;42687;42.524;12.052;2022-09-09T05:38:30;96570.53;;;17.24;100.00
56807;BME280;42687;42.524;12.052;2022-09-09T05:40:57;96567.47;;;17.29;100.00
56807;BME280;42687;42.524;12.052;2022-09-09T05:43:23;96572.50;;;17.32;100.00
56807;BME280;42687;42.524;12.052;2022-09-09T05:45:58;96568.31;;;17.39;100.00
56807;BME280;42687;42.524;12.052;2022-09-09T05:48:27;96572.97;;;17.47;100.00
56807;BME280;42687;42.524;12.052;2022-09-09T05:50:53;96569.47;;;17.56;100.00
56807;BME280;42687;42.524;12.052;2022-09-09T05:53:19;96576.19;;;17.70;100.00
56807;BME280;42687;42.524;12.052;2022-09-09T05:55:45;96574.13;;;17.83;100.00
56807;BME280;42687;42.524;12.052;2022-09-09T05:58:10;96572.91;;;17.97;100.00
56807;BME280;42687;42.524;12.052;2022-09-09T06:00:36;96575.69;;;18.06;100.00
56807;BME280;42687;42.524;12.052;2022-09-09T06:03:03;96569.09;;;18.10;100.00
56807;BME280;42687;42.524;12.052;2022-09-09T06:05:28;96570.34;;;18.15;100.00
56807;BME280;42687;42.524;12.052;2022-09-09T06:07:54;96569.94;;;18.20;100.00
56807;BME280;42687;42.524;12.052;2022-09-09T06:10:21;96578.19;;;18.27;100.00
56807;BME280;42687;42.524;12.052;2022-09-09T06:12:46;96577.66;;;18.33;100.00
56807;BME280;42687;42.524;12.052;2022-09-09T06:15:12;96572.44;;;18.41;100.00
56807;BME280;42687;42.524;12.052;2022-09-09T06:17:37;96577.88;;;18.49;100.00
56807;BME280;42687;42.524;12.052;2022-09-09T06:20:04;96577.47;;;18.54;100.00
56807;BME280;42687;42.524;12.052;2022-09-09T06:22:30;96568.75;;;18.62;100.00
56807;BME280;42687;42.524;12.052;2022-09-09T06:24:56;96566.38;;;18.59;100.00
56807;BME280;42687;42.524;12.052;2022-09-09T06:27:21;96574.47;;;18.67;100.00
56807;BME280;42687;42.524;12.052;2022-09-09T06:29:47;96581.75;;;18.75;100.00
56807;BME280;42687;42.524;12.052;2022-09-09T06:32:13;96574.03;;;18.91;100.00
56807;BME280;42687;42.524;12.052;2022-09-09T06:34:38;96576.31;;;19.14;100.00
56807;BME280;42687;42.524;12.052;2022-09-09T06:37:05;96582.66;;;19.31;100.00
56807;BME280;42687;42.524;12.052;2022-09-09T06:39:31;96582.94;;;19.38;100.00
56807;BME280;42687;42.524;12.052;2022-09-09T06:41:57;96585.38;;;19.49;100.00
56807;BME280;42687;42.524;12.052;2022-09-09T06:44:23;96582.34;;;19.90;100.00
56807;BME280;42687;42.524;12.052;2022-09-09T06:46:52;96576.47;;;20.66;100.00
56807;BME280;42687;42.524;12.052;2022-09-09T06:49:17;96569.38;;;21.53;100.00
56807;BME280;42687;42.524;12.052;2022-09-09T06:51:43;96577.53;;;22.10;100.00
56807;BME280;42687;42.524;12.052;2022-09-09T06:54:09;96519.63;;;22.34;100.00
56807;BME280;42687;42.524;12.052;2022-09-09T06:56:36;96582.44;;;23.29;100.00
56807;BME280;42687;42.524;12.052;2022-09-09T06:59:03;96589.03;;;23.89;100.00
56807;BME280;42687;42.524;12.052;2022-09-09T07:01:34;96577.03;;;24.46;100.00
56807;BME280;42687;42.524;12.052;2022-09-09T07:04:00;96576.47;;;24.89;100.00
56807;BME280;42687;42.524;12.052;2022-09-09T07:06:28;96581.50;;;25.22;100.00
56807;BME280;42687;42.524;12.052;2022-09-09T07:08:58;96585.69;;;25.55;100.00
56807;BME280;42687;42.524;12.052;2022-09-09T07:11:25;96592.59;;;25.79;100.00
56807;BME280;42687;42.524;12.052;2022-09-09T07:13:52;96588.06;;;26.16;100.00
56807;BME280;42687;42.524;12.052;2022-09-09T07:16:19;96595.28;;;26.59;100.00
56807;BME280;42687;42.524;12.052;2022-09-09T07:18:45;96597.31;;;27.07;100.00
56807;BME280;42687;42.524;12.052;2022-09-09T07:21:11;96602.13;;;27.46;100.00
56807;BME280;42687;42.524;12.052;2022-09-09T07:23:37;96597.34;;;27.42;100.00
56807;BME280;42687;42.524;12.052;2022-09-09T07:26:07;96596.16;;;27.23;100.00
56807;BME280;42687;42.524;12.052;2022-09-09T07:28:33;96600.25;;;27.40;100.00
56807;BME280;42687;42.524;12.052;2022-09-09T07:31:00;96592.03;;;27.62;100.00
56807;BME280;42687;42.524;12.052;2022-09-09T07:33:30;96558.81;;;27.61;100.00
56807;BME280;42687;42.524;12.052;2022-09-09T07:36:06;96584.00;;;27.82;100.00
56807;BME280;42687;42.524;12.052;2022-09-09T07:38:37;96586.50;;;27.84;100.00
56807;BME280;42687;42.524;12.052;2022-09-09T07:41:06;96589.94;;;28.06;100.00
56807;BME280;42687;42.524;12.052;2022-09-09T07:43:33;96593.09;;;28.23;96.62
56807;BME280;42687;42.524;12.052;2022-09-09T07:45:59;96611.25;;;27.87;98.24
56807;BME280;42687;42.524;12.052;2022-09-09T07:48:28;96606.31;;;27.14;100.00
56807;BME280;42687;42.524;12.052;2022-09-09T07:51:03;96600.28;;;26.62;100.00
56807;BME280;42687;42.524;12.052;2022-09-09T07:53:28;96610.84;;;26.57;100.00
56807;BME280;42687;42.524;12.052;2022-09-09T07:56:01;96626.53;;;26.10;100.00
56807;BME280;42687;42.524;12.052;2022-09-09T07:58:27;96616.66;;;25.80;100.00
56807;BME280;42687;42.524;12.052;2022-09-09T08:00:53;96621.81;;;25.97;100.00
56807;BME280;42687;42.524;12.052;2022-09-09T08:03:18;96624.19;;;26.43;100.00
56807;BME280;42687;42.524;12.052;2022-09-09T08:05:45;96620.47;;;26.94;100.00
56807;BME280;42687;42.524;12.052;2022-09-09T08:08:10;96635.97;;;27.42;97.95
56807;BME280;42687;42.524;12.052;2022-09-09T08:10:36;96635.94;;;27.71;97.08
56807;BME280;42687;42.524;12.052;2022-09-09T08:13:02;96635.13;;;27.84;96.05
56807;BME280;42687;42.524;12.052;2022-09-09T08:15:28;96642.75;;;28.15;96.26
56807;BME280;42687;42.524;12.052;2022-09-09T08:17:55;96654.88;;;28.39;95.77
56807;BME280;42687;42.524;12.052;2022-09-09T08:20:21;96661.19;;;28.73;95.24
56807;BME280;42687;42.524;12.052;2022-09-09T08:22:48;96656.81;;;28.99;94.76
56807;BME280;42687;42.524;12.052;2022-09-09T08:25:15;96653.69;;;29.22;94.01
56807;BME280;42687;42.524;12.052;2022-09-09T08:27:40;96658.91;;;29.37;93.51
56807;BME280;42687;42.524;12.052;2022-09-09T08:30:06;96662.63;;;29.43;93.65
56807;BME280;42687;42.524;12.052;2022-09-09T08:32:32;96662.63;;;29.23;92.93
56807;BME280;42687;42.524;12.052;2022-09-09T08:34:57;96674.09;;;29.25;91.89
56807;BME280;42687;42.524;12.052;2022-09-09T08:37:23;96676.41;;;29.28;92.19
56807;BME280;42687;42.524;12.052;2022-09-09T08:39:48;96666.22;;;29.30;92.47
56807;BME280;42687;42.524;12.052;2022-09-09T08:44:56;96664.03;;;29.72;90.71
56807;BME280;42687;42.524;12.052;2022-09-09T08:52:48;96661.94;;;29.74;86.30
56807;BME280;42687;42.524;12.052;2022-09-09T08:57:49;96667.47;;;29.34;86.14
56807;BME280;42687;42.524;12.052;2022-09-09T09:00:17;96663.28;;;29.32;86.00
56807;BME280;42687;42.524;12.052;2022-09-09T09:02:44;96670.13;;;29.54;84.78
56807;BME280;42687;42.524;12.052;2022-09-09T09:05:26;96664.03;;;29.72;83.26
56807;BME280;42687;42.524;12.052;2022-09-09T09:13:07;96668.81;;;30.29;79.70
56807;BME280;42687;42.524;12.052;2022-09-09T09:15:38;96677.63;;;30.63;76.80
56807;BME280;42687;42.524;12.052;2022-09-09T09:18:04;96672.28;;;30.50;76.94
56807;BME280;42687;42.524;12.052;2022-09-09T09:20:35;96668.31;;;30.07;76.00
56807;BME280;42687;42.524;12.052;2022-09-09T09:23:04;96677.34;;;29.81;78.60
56807;BME280;42687;42.524;12.052;2022-09-09T09:25:34;96681.81;;;29.35;79.29
56807;BME280;42687;42.524;12.052;2022-09-09T09:30:29;96673.47;;;28.69;81.27
56807;BME280;42687;42.524;12.052;2022-09-09T09:35:37;96662.22;;;29.06;79.09
56807;BME280;42687;42.524;12.052;2022-09-09T09:38:11;96662.03;;;29.41;77.67
56807;BME280;42687;42.524;12.052;2022-09-09T09:40:50;96655.03;;;29.78;77.21
56807;BME280;42687;42.524;12.052;2022-09-09T09:43:20;96655.47;;;30.27;75.20
56807;BME280;42687;42.524;12.052;2022-09-09T09:45:47;96659.06;;;30.60;72.99
56807;BME280;42687;42.524;12.052;2022-09-09T09:48:13;96656.78;;;30.82;72.00
56807;BME280;42687;42.524;12.052;2022-09-09T09:53:24;96653.97;;;31.27;69.47
56807;BME280;42687;42.524;12.052;2022-09-09T09:55:55;96653.22;;;31.14;68.38
56807;BME280;42687;42.524;12.052;2022-09-09T09:58:21;96650.94;;;30.85;68.11
56807;BME280;42687;42.524;12.052;2022-09-09T10:00:49;96658.13;;;30.73;68.05
56807;BME280;42687;42.524;12.052;2022-09-09T10:03:23;96656.97;;;30.87;67.59
56807;BME280;42687;42.524;12.052;2022-09-09T10:05:49;96657.38;;;31.16;66.68
56807;BME280;42687;42.524;12.052;2022-09-09T10:08:15;96650.16;;;31.28;65.49
56807;BME280;42687;42.524;12.052;2022-09-09T10:21:16;96642.19;;;30.83;65.74
56807;BME280;42687;42.524;12.052;2022-09-09T10:23:59;96649.69;;;31.13;64.37
56807;BME280;42687;42.524;12.052;2022-09-09T10:29:18;96651.41;;;30.50;64.90
56807;BME280;42687;42.524;12.052;2022-09-09T10:31:52;96643.38;;;30.62;65.02
56807;BME280;42687;42.524;12.052;2022-09-09T10:37:04;96642.84;;;30.53;63.90
56807;BME280;42687;42.524;12.052;2022-09-09T10:39:37;96638.59;;;30.64;63.14
56807;BME280;42687;42.524;12.052;2022-09-09T10:42:14;96640.84;;;30.67;62.74
56807;BME280;42687;42.524;12.052;2022-09-09T10:52:09;96627.50;;;31.16;59.62
56807;BME280;42687;42.524;12.052;2022-09-09T10:55:14;96616.31;;;31.06;61.31
56807;BME280;42687;42.524;12.052;2022-09-09T10:59:58;96639.63;;;30.63;59.84
56807;BME280;42687;42.524;12.052;2022-09-09T11:02:29;96634.09;;;29.54;62.71
56807;BME280;42687;42.524;12.052;2022-09-09T11:04:56;96624.16;;;28.94;62.88
56807;BME280;42687;42.524;12.052;2022-09-09T11:07:26;96633.94;;;28.95;62.57
56807;BME280;42687;42.524;12.052;2022-09-09T11:09:54;96595.44;;;28.86;61.79
56807;BME280;42687;42.524;12.052;2022-09-09T11:12:23;96633.25;;;29.47;60.29
56807;BME280;42687;42.524;12.052;2022-09-09T11:14:56;96635.38;;;29.04;61.20
56807;BME280;42687;42.524;12.052;2022-09-09T11:17:26;96650.22;;;28.13;62.33
56807;BME280;42687;42.524;12.052;2022-09-09T11:19:55;96641.72;;;27.33;63.04
56807;BME280;42687;42.524;12.052;2022-09-09T11:24:53;96651.09;;;27.78;59.14
56807;BME280;42687;42.524;12.052;2022-09-09T11:27:21;96656.53;;;28.40;57.82
56807;BME280;42687;42.524;12.052;2022-09-09T11:35:11;96649.09;;;29.16;54.12
56807;BME280;42687;42.524;12.052;2022-09-09T11:38:02;96651.19;;;29.41;52.53
56807;BME280;42687;42.524;12.052;2022-09-09T11:40:34;96607.63;;;29.42;51.79
56807;BME280;42687;42.524;12.052;2022-09-09T11:43:01;96658.97;;;29.83;50.09
56807;BME280;42687;42.524;12.052;2022-09-09T11:45:29;96658.16;;;29.82;48.35
56807;BME280;42687;42.524;12.052;2022-09-09T11:47:55;96667.53;;;29.79;48.91
56807;BME280;42687;42.524;12.052;2022-09-09T11:52:47;96660.94;;;29.62;47.65
56807;BME280;42687;42.524;12.052;2022-09-09T11:55:27;96656.72;;;29.79;44.50
56807;BME280;42687;42.524;12.052;2022-09-09T11:58:01;96674.22;;;29.77;45.88
56807;BME280;42687;42.524;12.052;2022-09-09T12:00:30;96673.44;;;29.50;43.51
56807;BME280;42687;42.524;12.052;2022-09-09T12:02:58;96676.19;;;29.29;44.35
56807;BME280;42687;42.524;12.052;2022-09-09T12:05:24;96672.25;;;29.32;44.24
56807;BME280;42687;42.524;12.052;2022-09-09T12:08:02;96679.69;;;29.57;41.04
56807;BME280;42687;42.524;12.052;2022-09-09T12:10:32;96673.47;;;29.56;42.72
56807;BME280;42687;42.524;12.052;2022-09-09T12:13:08;96669.50;;;29.45;41.12
56807;BME280;42687;42.524;12.052;2022-09-09T12:15:34;96679.09;;;29.48;42.03
56807;BME280;42687;42.524;12.052;2022-09-09T12:18:00;96678.88;;;29.56;43.16
56807;BME280;42687;42.524;12.052;2022-09-09T12:20:31;96680.66;;;29.83;39.96
56807;BME280;42687;42.524;12.052;2022-09-09T12:28:18;96670.56;;;30.17;39.33
56807;BME280;42687;42.524;12.052;2022-09-09T12:30:55;96688.50;;;30.56;34.65
56807;BME280;42687;42.524;12.052;2022-09-09T12:33:22;96695.34;;;30.66;42.54
56807;BME280;42687;42.524;12.052;2022-09-09T12:35:53;96690.00;;;30.52;40.07
56807;BME280;42687;42.524;12.052;2022-09-09T12:38:41;96686.25;;;30.40;39.59
56807;BME280;42687;42.524;12.052;2022-09-09T12:41:15;96689.06;;;30.72;41.92
56807;BME280;42687;42.524;12.052;2022-09-09T12:43:44;96684.16;;;30.49;42.25
56807;BME280;42687;42.524;12.052;2022-09-09T12:46:12;96679.69;;;30.22;42.73
56807;BME280;42687;42.524;12.052;2022-09-09T12:48:39;96682.44;;;30.16;42.69
56807;BME280;42687;42.524;12.052;2022-09-09T12:51:16;96679.53;;;30.10;43.26
56807;BME280;42687;42.524;12.052;2022-09-09T12:53:42;96674.34;;;30.09;42.59
56807;BME280;42687;42.524;12.052;2022-09-09T12:56:18;96667.13;;;30.35;41.25
56807;BME280;42687;42.524;12.052;2022-09-09T12:58:45;96669.53;;;30.56;37.79
56807;BME280;42687;42.524;12.052;2022-09-09T13:01:33;96667.63;;;30.57;42.98
56807;BME280;42687;42.524;12.052;2022-09-09T13:03:58;96668.25;;;30.20;39.53
56807;BME280;42687;42.524;12.052;2022-09-09T13:06:28;96668.88;;;29.57;42.43
56807;BME280;42687;42.524;12.052;2022-09-09T13:08:55;96674.53;;;28.95;43.29
56807;BME280;42687;42.524;12.052;2022-09-09T13:11:22;96668.69;;;29.18;42.40
56807;BME280;42687;42.524;12.052;2022-09-09T13:13:50;96664.91;;;29.59;41.98
56807;BME280;42687;42.524;12.052;2022-09-09T13:16:20;96663.25;;;29.52;40.33
56807;BME280;42687;42.524;12.052;2022-09-09T13:18:46;96666.00;;;29.32;42.84
56807;BME280;42687;42.524;12.052;2022-09-09T13:21:12;96662.78;;;29.61;42.73
56807;BME280;42687;42.524;12.052;2022-09-09T13:23:38;96661.50;;;29.91;42.62
56807;BME280;42687;42.524;12.052;2022-09-09T13:26:05;96656.25;;;30.03;42.56
56807;BME280;42687;42.524;12.052;2022-09-09T13:28:33;96663.44;;;30.16;41.72
56807;BME280;42687;42.524;12.052;2022-09-09T13:30:59;96671.38;;;30.17;41.82
56807;BME280;42687;42.524;12.052;2022-09-09T13:33:32;96664.03;;;30.24;41.98
56807;BME280;42687;42.524;12.052;2022-09-09T13:38:29;96664.47;;;29.56;41.90
56807;BME280;42687;42.524;12.052;2022-09-09T13:41:00;96661.19;;;29.34;41.80
56807;BME280;42687;42.524;12.052;2022-09-09T13:43:31;96664.94;;;29.06;38.82
56807;BME280;42687;42.524;12.052;2022-09-09T13:45:58;96662.25;;;28.79;41.98
56807;BME280;42687;42.524;12.052;2022-09-09T13:48:24;96665.59;;;28.94;41.96
56807;BME280;42687;42.524;12.052;2022-09-09T13:51:21;96652.66;;;29.37;41.13
56807;BME280;42687;42.524;12.052;2022-09-09T13:53:39;96647.81;;;29.66;41.06
56807;BME280;42687;42.524;12.052;2022-09-09T13:56:04;96662.38;;;29.65;40.40
56807;BME280;42687;42.524;12.052;2022-09-09T13:58:30;96658.47;;;29.47;40.16
56807;BME280;42687;42.524;12.052;2022-09-09T14:00:55;96656.19;;;29.24;41.25
56807;BME280;42687;42.524;12.052;2022-09-09T14:03:22;96660.38;;;28.93;41.37
56807;BME280;42687;42.524;12.052;2022-09-09T14:05:48;96658.25;;;28.55;42.30
56807;BME280;42687;42.524;12.052;2022-09-09T14:08:24;96658.59;;;28.32;43.00
56807;BME280;42687;42.524;12.052;2022-09-09T14:10:50;96658.53;;;28.05;42.96
56807;BME280;42687;42.524;12.052;2022-09-09T14:13:15;96652.16;;;27.77;43.49
56807;BME280;42687;42.524;12.052;2022-09-09T14:15:41;96644.34;;;27.54;43.73
56807;BME280;42687;42.524;12.052;2022-09-09T14:18:09;96654.34;;;27.32;44.51
56807;BME280;42687;42.524;12.052;2022-09-09T14:20:34;96651.41;;;27.20;45.24
56807;BME280;42687;42.524;12.052;2022-09-09T14:23:00;96651.97;;;27.16;44.88
56807;BME280;42687;42.524;12.052;2022-09-09T14:25:25;96657.13;;;27.10;45.15
56807;BME280;42687;42.524;12.052;2022-09-09T14:27:51;96649.88;;;27.11;44.96
56807;BME280;42687;42.524;12.052;2022-09-09T14:30:16;96652.59;;;27.11;45.19
56807;BME280;42687;42.524;12.052;2022-09-09T14:32:42;96657.34;;;27.09;44.88
56807;BME280;42687;42.524;12.052;2022-09-09T14:35:07;96662.47;;;27.04;45.10
56807;BME280;42687;42.524;12.052;2022-09-09T14:37:33;96664.69;;;26.93;45.00
56807;BME280;42687;42.524;12.052;2022-09-09T14:39:59;96661.25;;;26.78;44.58
56807;BME280;42687;42.524;12.052;2022-09-09T14:42:24;96665.44;;;26.66;45.74
56807;BME280;42687;42.524;12.052;2022-09-09T14:44:51;96662.25;;;26.55;45.52
56807;BME280;42687;42.524;12.052;2022-09-09T14:47:16;96669.50;;;26.33;45.87
56807;BME280;42687;42.524;12.052;2022-09-09T14:49:42;96666.94;;;26.10;45.87
56807;BME280;42687;42.524;12.052;2022-09-09T14:52:08;96673.66;;;25.84;46.41
56807;BME280;42687;42.524;12.052;2022-09-09T14:54:34;96667.09;;;25.57;46.62
56807;BME280;42687;42.524;12.052;2022-09-09T14:56:59;96673.06;;;25.37;46.85
56807;BME280;42687;42.524;12.052;2022-09-09T14:59:25;96671.97;;;25.23;46.69
56807;BME280;42687;42.524;12.052;2022-09-09T15:01:52;96674.94;;;25.13;46.93